sensor_id;sensor_type;location;lat;lon;timestamp;temperature;humidity
21261;DHT22;10788;47.930;9.766;2023-07-20T00:01:57;18.80;99.90
21261;DHT22;10788;47.930;9.766;2023-07-20T00:04:22;18.80;99.90
21261;DHT22;10788;47.930;9.766;2023-07-20T00:06:48;18.80;99.90
21261;DHT22;10788;47.930;9.766;2023-07-20T00:09:14;18.70;99.90
21261;DHT22;10788;47.930;9.766;2023-07-20T00:11:39;18.70;99.90
21261;DHT22;10788;47.930;9.766;2023-07-20T00:14:06;18.70;99.90
21261;DHT22;10788;47.930;9.766;2023-07-20T00:16:31;18.70;99.90
21261;DHT22;10788;47.930;9.766;2023-07-20T00:18:57;18.70;99.90
21261;DHT22;10788;47.930;9.766;2023-07-20T00:21:23;18.70;99.90
21261;DHT22;10788;47.930;9.766;2023-07-20T00:23:48;18.60;99.90
21261;DHT22;10788;47.930;9.766;2023-07-20T00:26:14;18.60;99.90
21261;DHT22;10788;47.930;9.766;2023-07-20T00:28:40;18.60;99.90
21261;DHT22;10788;47.930;9.766;2023-07-20T00:31:05;18.60;99.90
21261;DHT22;10788;47.930;9.766;2023-07-20T00:33:31;18.60;99.90
21261;DHT22;10788;47.930;9.766;2023-07-20T00:35:56;18.60;99.90
21261;DHT22;10788;47.930;9.766;2023-07-20T00:38:22;18.60;99.90
21261;DHT22;10788;47.930;9.766;2023-07-20T00:40:48;18.60;99.90
21261;DHT22;10788;47.930;9.766;2023-07-20T00:43:15;18.60;99.90
21261;DHT22;10788;47.930;9.766;2023-07-20T00:45:41;18.50;99.90
21261;DHT22;10788;47.930;9.766;2023-07-20T00:48:07;18.60;99.90
21261;DHT22;10788;47.930;9.766;2023-07-20T00:50:33;18.60;99.90
21261;DHT22;10788;47.930;9.766;2023-07-20T00:52:59;18.60;99.90
21261;DHT22;10788;47.930;9.766;2023-07-20T00:55:26;18.60;99.90
21261;DHT22;10788;47.930;9.766;2023-07-20T00:57:54;18.60;99.90
21261;DHT22;10788;47.930;9.766;2023-07-20T01:00:19;18.60;99.90
21261;DHT22;10788;47.930;9.766;2023-07-20T01:02:45;18.50;99.90
21261;DHT22;10788;47.930;9.766;2023-07-20T01:05:12;18.50;99.90
21261;DHT22;10788;47.930;9.766;2023-07-20T01:07:50;18.60;99.90
21261;DHT22;10788;47.930;9.766;2023-07-20T01:10:21;18.60;99.90
21261;DHT22;10788;47.930;9.766;2023-07-20T01:12:55;18.60;99.90
21261;DHT22;10788;47.930;9.766;2023-07-20T01:15:20;18.60;99.90
21261;DHT22;10788;47.930;9.766;2023-07-20T01:17:46;18.70;99.90
21261;DHT22;10788;47.930;9.766;2023-07-20T01:20:19;18.70;99.90
21261;DHT22;10788;47.930;9.766;2023-07-20T01:25:43;18.70;99.90
21261;DHT22;10788;47.930;9.766;2023-07-20T01:31:34;18.80;99.90
21261;DHT22;10788;47.930;9.766;2023-07-20T01:34:02;18.70;99.90
21261;DHT22;10788;47.930;9.766;2023-07-20T01:36:32;18.80;99.90
21261;DHT22;10788;47.930;9.766;2023-07-20T01:38:59;18.80;99.90
21261;DHT22;10788;47.930;9.766;2023-07-20T01:41:25;18.80;99.90
21261;DHT22;10788;47.930;9.766;2023-07-20T01:43:51;18.80;99.90
21261;DHT22;10788;47.930;9.766;2023-07-20T01:46:17;18.80;99.90
21261;DHT22;10788;47.930;9.766;2023-07-20T01:48:42;18.80;99.90
21261;DHT22;10788;47.930;9.766;2023-07-20T01:51:08;18.80;99.90
21261;DHT22;10788;47.930;9.766;2023-07-20T01:53:34;18.80;99.90
21261;DHT22;10788;47.930;9.766;2023-07-20T01:55:59;18.80;99.90
21261;DHT22;10788;47.930;9.766;2023-07-20T01:58:25;18.70;99.90
21261;DHT22;10788;47.930;9.766;2023-07-20T02:00:51;18.70;99.90
21261;DHT22;10788;47.930;9.766;2023-07-20T02:03:16;18.70;99.90
21261;DHT22;10788;47.930;9.766;2023-07-20T02:05:42;18.70;99.90
21261;DHT22;10788;47.930;9.766;2023-07-20T02:08:08;18.60;99.90
21261;DHT22;10788;47.930;9.766;2023-07-20T02:10:35;18.60;99.90
21261;DHT22;10788;47.930;9.766;2023-07-20T02:13:00;18.60;99.90
21261;DHT22;10788;47.930;9.766;2023-07-20T02:15:26;18.60;99.90
21261;DHT22;10788;47.930;9.766;2023-07-20T02:17:53;18.60;99.90
21261;DHT22;10788;47.930;9.766;2023-07-20T02:20:18;18.60;99.90
21261;DHT22;10788;47.930;9.766;2023-07-20T02:22:44;18.60;99.90
21261;DHT22;10788;47.930;9.766;2023-07-20T02:25:10;18.60;99.90
21261;DHT22;10788;47.930;9.766;2023-07-20T02:27:37;18.60;99.90
21261;DHT22;10788;47.930;9.766;2023-07-20T02:30:03;18.50;99.90
21261;DHT22;10788;47.930;9.766;2023-07-20T02:32:30;18.50;99.90
21261;DHT22;10788;47.930;9.766;2023-07-20T02:34:57;18.40;99.90
21261;DHT22;10788;47.930;9.766;2023-07-20T02:37:24;18.40;99.90
21261;DHT22;10788;47.930;9.766;2023-07-20T02:39:49;18.20;99.90
21261;DHT22;10788;47.930;9.766;2023-07-20T02:42:15;18.10;99.90
21261;DHT22;10788;47.930;9.766;2023-07-20T02:44:41;18.10;99.90
21261;DHT22;10788;47.930;9.766;2023-07-20T02:47:06;18.10;99.90
21261;DHT22;10788;47.930;9.766;2023-07-20T02:49:32;18.00;99.90
21261;DHT22;10788;47.930;9.766;2023-07-20T02:51:57;18.00;99.90
21261;DHT22;10788;47.930;9.766;2023-07-20T02:54:23;18.00;99.90
21261;DHT22;10788;47.930;9.766;2023-07-20T02:56:49;18.00;99.90
21261;DHT22;10788;47.930;9.766;2023-07-20T02:59:15;17.80;99.90
21261;DHT22;10788;47.930;9.766;2023-07-20T03:01:40;17.90;99.90
21261;DHT22;10788;47.930;9.766;2023-07-20T03:04:08;17.80;99.90
21261;DHT22;10788;47.930;9.766;2023-07-20T03:06:35;17.80;99.90
21261;DHT22;10788;47.930;9.766;2023-07-20T03:09:02;17.70;99.90
21261;DHT22;10788;47.930;9.766;2023-07-20T03:11:27;17.70;99.90
21261;DHT22;10788;47.930;9.766;2023-07-20T03:13:53;17.70;99.90
21261;DHT22;10788;47.930;9.766;2023-07-20T03:16:19;17.70;99.90
21261;DHT22;10788;47.930;9.766;2023-07-20T03:18:46;17.70;99.90
21261;DHT22;10788;47.930;9.766;2023-07-20T03:21:12;17.70;99.90
21261;DHT22;10788;47.930;9.766;2023-07-20T03:23:38;17.50;99.90
21261;DHT22;10788;47.930;9.766;2023-07-20T03:26:04;17.60;99.90
21261;DHT22;10788;47.930;9.766;2023-07-20T03:28:30;17.70;99.90
21261;DHT22;10788;47.930;9.766;2023-07-20T03:30:56;17.60;99.90
21261;DHT22;10788;47.930;9.766;2023-07-20T03:33:25;17.60;99.90
21261;DHT22;10788;47.930;9.766;2023-07-20T03:36:20;17.60;99.90
21261;DHT22;10788;47.930;9.766;2023-07-20T03:38:49;17.60;99.90
21261;DHT22;10788;47.930;9.766;2023-07-20T03:41:15;17.70;99.90
21261;DHT22;10788;47.930;9.766;2023-07-20T03:43:41;17.70;99.90
21261;DHT22;10788;47.930;9.766;2023-07-20T03:46:07;17.80;99.90
21261;DHT22;10788;47.930;9.766;2023-07-20T03:48:33;17.80;99.90
21261;DHT22;10788;47.930;9.766;2023-07-20T03:50:59;17.70;99.90
21261;DHT22;10788;47.930;9.766;2023-07-20T03:53:25;17.70;99.90
21261;DHT22;10788;47.930;9.766;2023-07-20T03:55:52;17.70;99.90
21261;DHT22;10788;47.930;9.766;2023-07-20T03:58:19;17.60;99.90
21261;DHT22;10788;47.930;9.766;2023-07-20T04:00:47;17.60;99.90
21261;DHT22;10788;47.930;9.766;2023-07-20T04:03:16;17.60;99.90
21261;DHT22;10788;47.930;9.766;2023-07-20T04:05:43;17.50;99.90
21261;DHT22;10788;47.930;9.766;2023-07-20T04:08:10;17.50;99.90
21261;DHT22;10788;47.930;9.766;2023-07-20T04:10:37;17.50;99.90
21261;DHT22;10788;47.930;9.766;2023-07-20T04:13:03;17.50;99.90
21261;DHT22;10788;47.930;9.766;2023-07-20T04:15:28;17.50;99.90
21261;DHT22;10788;47.930;9.766;2023-07-20T04:17:54;17.50;99.90
21261;DHT22;10788;47.930;9.766;2023-07-20T04:20:22;17.50;99.90
21261;DHT22;10788;47.930;9.766;2023-07-20T04:22:47;17.50;99.90
21261;DHT22;10788;47.930;9.766;2023-07-20T04:25:13;17.50;99.90
21261;DHT22;10788;47.930;9.766;2023-07-20T04:27:39;17.50;99.90
21261;DHT22;10788;47.930;9.766;2023-07-20T04:30:07;17.50;99.90
21261;DHT22;10788;47.930;9.766;2023-07-20T04:32:33;17.60;99.90
21261;DHT22;10788;47.930;9.766;2023-07-20T04:34:59;17.60;99.90
21261;DHT22;10788;47.930;9.766;2023-07-20T04:37:25;17.50;99.90
21261;DHT22;10788;47.930;9.766;2023-07-20T04:39:50;17.60;99.90
21261;DHT22;10788;47.930;9.766;2023-07-20T04:42:16;17.50;99.90
21261;DHT22;10788;47.930;9.766;2023-07-20T04:44:42;17.50;99.90
21261;DHT22;10788;47.930;9.766;2023-07-20T04:47:07;17.50;99.90
21261;DHT22;10788;47.930;9.766;2023-07-20T04:49:34;17.50;99.90
21261;DHT22;10788;47.930;9.766;2023-07-20T04:51:59;17.60;99.90
21261;DHT22;10788;47.930;9.766;2023-07-20T04:54:25;17.70;99.90
21261;DHT22;10788;47.930;9.766;2023-07-20T04:56:53;17.80;99.90
21261;DHT22;10788;47.930;9.766;2023-07-20T04:59:18;17.80;99.90
21261;DHT22;10788;47.930;9.766;2023-07-20T05:01:44;17.90;99.90
21261;DHT22;10788;47.930;9.766;2023-07-20T05:04:10;17.90;99.90
21261;DHT22;10788;47.930;9.766;2023-07-20T05:06:35;18.00;99.90
21261;DHT22;10788;47.930;9.766;2023-07-20T05:09:10;18.00;99.90
21261;DHT22;10788;47.930;9.766;2023-07-20T05:11:39;18.10;99.90
21261;DHT22;10788;47.930;9.766;2023-07-20T05:14:04;18.10;99.90
21261;DHT22;10788;47.930;9.766;2023-07-20T05:16:30;18.10;99.90
21261;DHT22;10788;47.930;9.766;2023-07-20T05:18:56;18.10;99.90
21261;DHT22;10788;47.930;9.766;2023-07-20T05:21:22;18.10;99.90
21261;DHT22;10788;47.930;9.766;2023-07-20T05:23:48;18.20;99.90
21261;DHT22;10788;47.930;9.766;2023-07-20T05:26:13;18.20;99.90
21261;DHT22;10788;47.930;9.766;2023-07-20T05:28:39;18.10;99.90
21261;DHT22;10788;47.930;9.766;2023-07-20T05:31:05;18.10;99.90
21261;DHT22;10788;47.930;9.766;2023-07-20T05:33:31;18.10;99.90
21261;DHT22;10788;47.930;9.766;2023-07-20T05:35:57;18.10;99.90
21261;DHT22;10788;47.930;9.766;2023-07-20T05:38:22;18.10;99.90
21261;DHT22;10788;47.930;9.766;2023-07-20T05:40:48;18.20;99.90
21261;DHT22;10788;47.930;9.766;2023-07-20T05:43:14;18.20;99.90
21261;DHT22;10788;47.930;9.766;2023-07-20T05:45:43;18.20;99.90
21261;DHT22;10788;47.930;9.766;2023-07-20T05:48:10;18.20;99.90
21261;DHT22;10788;47.930;9.766;2023-07-20T05:50:37;18.20;99.90
21261;DHT22;10788;47.930;9.766;2023-07-20T05:53:03;18.10;99.90
21261;DHT22;10788;47.930;9.766;2023-07-20T05:55:29;18.20;99.90
21261;DHT22;10788;47.930;9.766;2023-07-20T05:57:55;18.10;99.90
21261;DHT22;10788;47.930;9.766;2023-07-20T06:00:21;18.20;99.90
21261;DHT22;10788;47.930;9.766;2023-07-20T06:02:52;18.20;99.90
21261;DHT22;10788;47.930;9.766;2023-07-20T06:05:18;18.30;99.90
21261;DHT22;10788;47.930;9.766;2023-07-20T06:07:45;18.40;99.90
21261;DHT22;10788;47.930;9.766;2023-07-20T06:10:11;18.40;99.90
21261;DHT22;10788;47.930;9.766;2023-07-20T06:12:36;18.50;99.90
21261;DHT22;10788;47.930;9.766;2023-07-20T06:15:05;18.50;99.90
21261;DHT22;10788;47.930;9.766;2023-07-20T06:17:32;18.60;99.90
21261;DHT22;10788;47.930;9.766;2023-07-20T06:19:58;18.60;99.90
21261;DHT22;10788;47.930;9.766;2023-07-20T06:22:23;18.60;99.90
21261;DHT22;10788;47.930;9.766;2023-07-20T06:24:49;18.70;99.90
21261;DHT22;10788;47.930;9.766;2023-07-20T06:27:15;18.70;99.90
21261;DHT22;10788;47.930;9.766;2023-07-20T06:29:40;18.80;99.90
21261;DHT22;10788;47.930;9.766;2023-07-20T06:32:07;18.80;99.90
21261;DHT22;10788;47.930;9.766;2023-07-20T06:34:33;18.80;99.90
21261;DHT22;10788;47.930;9.766;2023-07-20T06:37:03;18.80;99.90
21261;DHT22;10788;47.930;9.766;2023-07-20T06:39:29;18.80;99.90
21261;DHT22;10788;47.930;9.766;2023-07-20T06:41:55;18.80;99.90
21261;DHT22;10788;47.930;9.766;2023-07-20T06:44:20;18.80;99.90
21261;DHT22;10788;47.930;9.766;2023-07-20T06:46:46;18.80;99.90
21261;DHT22;10788;47.930;9.766;2023-07-20T06:49:26;18.80;99.90
21261;DHT22;10788;47.930;9.766;2023-07-20T06:51:53;18.80;99.90
21261;DHT22;10788;47.930;9.766;2023-07-20T06:54:19;18.80;99.90
21261;DHT22;10788;47.930;9.766;2023-07-20T06:56:44;18.90;99.90
21261;DHT22;10788;47.930;9.766;2023-07-20T06:59:10;18.90;99.90
21261;DHT22;10788;47.930;9.766;2023-07-20T07:01:35;19.00;99.90
21261;DHT22;10788;47.930;9.766;2023-07-20T07:04:01;19.00;99.90
21261;DHT22;10788;47.930;9.766;2023-07-20T07:06:27;19.00;99.90
21261;DHT22;10788;47.930;9.766;2023-07-20T07:08:53;19.00;99.90
21261;DHT22;10788;47.930;9.766;2023-07-20T07:11:20;19.30;99.90
21261;DHT22;10788;47.930;9.766;2023-07-20T07:13:45;19.60;99.90
21261;DHT22;10788;47.930;9.766;2023-07-20T07:16:12;19.70;99.90
21261;DHT22;10788;47.930;9.766;2023-07-20T07:18:40;19.90;99.90
21261;DHT22;10788;47.930;9.766;2023-07-20T07:21:05;19.90;99.90
21261;DHT22;10788;47.930;9.766;2023-07-20T07:23:31;19.80;99.90
21261;DHT22;10788;47.930;9.766;2023-07-20T07:25:57;19.80;99.90
21261;DHT22;10788;47.930;9.766;2023-07-20T07:28:22;19.80;99.90
21261;DHT22;10788;47.930;9.766;2023-07-20T07:30:48;20.00;99.90
21261;DHT22;10788;47.930;9.766;2023-07-20T07:33:14;20.10;99.90
21261;DHT22;10788;47.930;9.766;2023-07-20T07:35:40;20.30;99.90
21261;DHT22;10788;47.930;9.766;2023-07-20T07:38:06;20.30;99.90
21261;DHT22;10788;47.930;9.766;2023-07-20T07:40:32;20.50;99.90
21261;DHT22;10788;47.930;9.766;2023-07-20T07:42:57;20.50;99.90
21261;DHT22;10788;47.930;9.766;2023-07-20T07:45:23;20.60;99.90
21261;DHT22;10788;47.930;9.766;2023-07-20T07:47:49;20.80;99.90
21261;DHT22;10788;47.930;9.766;2023-07-20T07:50:14;20.90;99.90
21261;DHT22;10788;47.930;9.766;2023-07-20T07:52:40;20.80;99.90
21261;DHT22;10788;47.930;9.766;2023-07-20T07:55:06;20.70;99.90
21261;DHT22;10788;47.930;9.766;2023-07-20T07:57:31;20.70;99.90
21261;DHT22;10788;47.930;9.766;2023-07-20T07:59:57;20.60;99.90
21261;DHT22;10788;47.930;9.766;2023-07-20T08:02:23;20.70;99.90
21261;DHT22;10788;47.930;9.766;2023-07-20T08:04:48;20.80;99.90
21261;DHT22;10788;47.930;9.766;2023-07-20T08:07:16;20.90;99.90
21261;DHT22;10788;47.930;9.766;2023-07-20T08:09:42;21.00;99.90
21261;DHT22;10788;47.930;9.766;2023-07-20T08:12:07;21.00;99.90
21261;DHT22;10788;47.930;9.766;2023-07-20T08:14:33;20.90;99.90
21261;DHT22;10788;47.930;9.766;2023-07-20T08:16:59;21.00;99.90
21261;DHT22;10788;47.930;9.766;2023-07-20T08:19:25;21.00;99.90
21261;DHT22;10788;47.930;9.766;2023-07-20T08:21:50;21.10;99.90
21261;DHT22;10788;47.930;9.766;2023-07-20T08:24:16;21.40;99.90
21261;DHT22;10788;47.930;9.766;2023-07-20T08:26:41;21.80;99.90
21261;DHT22;10788;47.930;9.766;2023-07-20T08:29:07;21.90;99.90
21261;DHT22;10788;47.930;9.766;2023-07-20T08:31:33;21.90;99.90
21261;DHT22;10788;47.930;9.766;2023-07-20T08:33:58;22.00;99.90
21261;DHT22;10788;47.930;9.766;2023-07-20T08:36:24;22.20;99.90
21261;DHT22;10788;47.930;9.766;2023-07-20T08:38:50;22.40;99.90
21261;DHT22;10788;47.930;9.766;2023-07-20T08:41:16;22.70;99.90
21261;DHT22;10788;47.930;9.766;2023-07-20T08:43:42;23.10;99.90
21261;DHT22;10788;47.930;9.766;2023-07-20T08:46:11;23.30;99.90
21261;DHT22;10788;47.930;9.766;2023-07-20T08:48:38;23.40;99.90
21261;DHT22;10788;47.930;9.766;2023-07-20T08:51:04;23.70;99.90
21261;DHT22;10788;47.930;9.766;2023-07-20T08:53:31;23.70;99.90
21261;DHT22;10788;47.930;9.766;2023-07-20T08:55:58;24.00;99.90
21261;DHT22;10788;47.930;9.766;2023-07-20T08:58:25;24.30;99.90
21261;DHT22;10788;47.930;9.766;2023-07-20T09:00:52;24.50;99.90
21261;DHT22;10788;47.930;9.766;2023-07-20T09:03:18;24.20;99.90
21261;DHT22;10788;47.930;9.766;2023-07-20T09:05:44;23.90;99.90
21261;DHT22;10788;47.930;9.766;2023-07-20T09:08:10;23.90;99.90
21261;DHT22;10788;47.930;9.766;2023-07-20T09:10:36;23.80;99.90
21261;DHT22;10788;47.930;9.766;2023-07-20T09:13:01;23.60;99.90
21261;DHT22;10788;47.930;9.766;2023-07-20T09:15:29;23.70;99.90
21261;DHT22;10788;47.930;9.766;2023-07-20T09:17:54;24.00;99.90
21261;DHT22;10788;47.930;9.766;2023-07-20T09:20:21;24.30;99.90
21261;DHT22;10788;47.930;9.766;2023-07-20T09:22:47;24.70;99.90
21261;DHT22;10788;47.930;9.766;2023-07-20T09:25:14;25.00;99.90
21261;DHT22;10788;47.930;9.766;2023-07-20T09:27:42;25.10;99.90
21261;DHT22;10788;47.930;9.766;2023-07-20T09:30:08;25.20;99.90
21261;DHT22;10788;47.930;9.766;2023-07-20T09:32:54;25.30;99.90
21261;DHT22;10788;47.930;9.766;2023-07-20T09:35:21;25.20;99.90
21261;DHT22;10788;47.930;9.766;2023-07-20T09:40:18;25.50;99.90
21261;DHT22;10788;47.930;9.766;2023-07-20T09:42:44;25.80;99.90
21261;DHT22;10788;47.930;9.766;2023-07-20T09:45:10;26.20;99.90
21261;DHT22;10788;47.930;9.766;2023-07-20T09:47:37;26.40;99.90
21261;DHT22;10788;47.930;9.766;2023-07-20T09:50:07;26.60;99.90
21261;DHT22;10788;47.930;9.766;2023-07-20T09:52:41;26.40;99.90
21261;DHT22;10788;47.930;9.766;2023-07-20T09:55:07;26.40;99.90
21261;DHT22;10788;47.930;9.766;2023-07-20T09:57:34;26.20;99.90
21261;DHT22;10788;47.930;9.766;2023-07-20T10:00:02;26.20;99.90
21261;DHT22;10788;47.930;9.766;2023-07-20T10:02:33;26.10;99.90
21261;DHT22;10788;47.930;9.766;2023-07-20T10:05:02;25.90;99.90
21261;DHT22;10788;47.930;9.766;2023-07-20T10:07:30;25.50;99.90
21261;DHT22;10788;47.930;9.766;2023-07-20T10:09:59;25.60;99.90
21261;DHT22;10788;47.930;9.766;2023-07-20T10:12:27;25.70;99.90
21261;DHT22;10788;47.930;9.766;2023-07-20T10:17:36;25.80;99.90
21261;DHT22;10788;47.930;9.766;2023-07-20T10:20:03;25.90;99.90
21261;DHT22;10788;47.930;9.766;2023-07-20T10:22:34;26.00;99.90
21261;DHT22;10788;47.930;9.766;2023-07-20T10:25:01;26.10;99.90
21261;DHT22;10788;47.930;9.766;2023-07-20T10:27:27;25.80;99.90
21261;DHT22;10788;47.930;9.766;2023-07-20T10:29:53;25.50;99.90
21261;DHT22;10788;47.930;9.766;2023-07-20T10:32:20;25.30;99.90
21261;DHT22;10788;47.930;9.766;2023-07-20T10:34:51;25.60;99.90
21261;DHT22;10788;47.930;9.766;2023-07-20T10:37:46;25.70;99.90
21261;DHT22;10788;47.930;9.766;2023-07-20T10:40:32;25.60;99.90
21261;DHT22;10788;47.930;9.766;2023-07-20T10:48:13;25.60;99.90
21261;DHT22;10788;47.930;9.766;2023-07-20T10:50:40;25.70;99.90
21261;DHT22;10788;47.930;9.766;2023-07-20T10:53:17;25.70;99.90
21261;DHT22;10788;47.930;9.766;2023-07-20T10:55:43;25.50;99.90
21261;DHT22;10788;47.930;9.766;2023-07-20T10:58:11;25.50;99.90
21261;DHT22;10788;47.930;9.766;2023-07-20T11:00:38;25.40;99.90
21261;DHT22;10788;47.930;9.766;2023-07-20T11:03:35;25.30;99.90
21261;DHT22;10788;47.930;9.766;2023-07-20T11:08:56;25.20;99.90
21261;DHT22;10788;47.930;9.766;2023-07-20T11:16:33;25.00;99.90
21261;DHT22;10788;47.930;9.766;2023-07-20T11:18:59;25.10;99.90
21261;DHT22;10788;47.930;9.766;2023-07-20T11:21:25;25.30;99.90
21261;DHT22;10788;47.930;9.766;2023-07-20T11:23:52;25.30;99.90
21261;DHT22;10788;47.930;9.766;2023-07-20T11:26:18;25.10;99.90
21261;DHT22;10788;47.930;9.766;2023-07-20T11:28:49;25.10;99.90
21261;DHT22;10788;47.930;9.766;2023-07-20T11:31:14;25.10;99.90
21261;DHT22;10788;47.930;9.766;2023-07-20T11:33:43;25.10;99.90
21261;DHT22;10788;47.930;9.766;2023-07-20T11:36:09;25.20;99.90
21261;DHT22;10788;47.930;9.766;2023-07-20T11:38:35;25.10;99.90
21261;DHT22;10788;47.930;9.766;2023-07-20T11:41:02;24.90;99.90
21261;DHT22;10788;47.930;9.766;2023-07-20T11:43:30;25.10;99.90
21261;DHT22;10788;47.930;9.766;2023-07-20T11:45:56;25.50;99.90
21261;DHT22;10788;47.930;9.766;2023-07-20T11:48:21;25.70;99.90
21261;DHT22;10788;47.930;9.766;2023-07-20T11:50:47;25.90;99.90
21261;DHT22;10788;47.930;9.766;2023-07-20T11:53:14;26.10;99.90
21261;DHT22;10788;47.930;9.766;2023-07-20T11:55:40;26.50;99.90
21261;DHT22;10788;47.930;9.766;2023-07-20T11:58:08;26.60;99.90
21261;DHT22;10788;47.930;9.766;2023-07-20T12:00:35;26.70;99.90
21261;DHT22;10788;47.930;9.766;2023-07-20T12:03:01;26.90;99.90
21261;DHT22;10788;47.930;9.766;2023-07-20T12:05:29;26.80;99.90
21261;DHT22;10788;47.930;9.766;2023-07-20T12:07:55;26.80;99.90
21261;DHT22;10788;47.930;9.766;2023-07-20T12:10:25;26.60;99.90
21261;DHT22;10788;47.930;9.766;2023-07-20T12:12:52;26.50;99.80
21261;DHT22;10788;47.930;9.766;2023-07-20T12:15:24;26.50;99.90
21261;DHT22;10788;47.930;9.766;2023-07-20T12:17:53;26.60;99.90
21261;DHT22;10788;47.930;9.766;2023-07-20T12:20:29;26.60;98.70
21261;DHT22;10788;47.930;9.766;2023-07-20T12:25:36;26.60;98.80
21261;DHT22;10788;47.930;9.766;2023-07-20T12:28:14;26.70;99.20
21261;DHT22;10788;47.930;9.766;2023-07-20T12:30:41;26.70;99.90
21261;DHT22;10788;47.930;9.766;2023-07-20T12:33:07;26.60;98.40
21261;DHT22;10788;47.930;9.766;2023-07-20T12:35:33;26.60;98.70
21261;DHT22;10788;47.930;9.766;2023-07-20T12:37:59;26.50;98.80
21261;DHT22;10788;47.930;9.766;2023-07-20T12:40:25;26.50;98.70
21261;DHT22;10788;47.930;9.766;2023-07-20T12:42:51;26.40;99.90
21261;DHT22;10788;47.930;9.766;2023-07-20T12:45:17;26.50;99.80
21261;DHT22;10788;47.930;9.766;2023-07-20T12:47:42;26.60;98.60
21261;DHT22;10788;47.930;9.766;2023-07-20T12:50:12;26.70;97.90
21261;DHT22;10788;47.930;9.766;2023-07-20T12:52:39;26.70;97.10
21261;DHT22;10788;47.930;9.766;2023-07-20T12:55:06;26.70;97.40
21261;DHT22;10788;47.930;9.766;2023-07-20T12:57:34;26.70;97.50
21261;DHT22;10788;47.930;9.766;2023-07-20T13:00:08;26.60;97.10
21261;DHT22;10788;47.930;9.766;2023-07-20T13:02:34;26.60;97.20
21261;DHT22;10788;47.930;9.766;2023-07-20T13:05:00;26.60;97.20
21261;DHT22;10788;47.930;9.766;2023-07-20T13:07:34;26.60;97.30
21261;DHT22;10788;47.930;9.766;2023-07-20T13:10:00;26.70;97.30
21261;DHT22;10788;47.930;9.766;2023-07-20T13:12:30;26.80;98.10
21261;DHT22;10788;47.930;9.766;2023-07-20T13:14:56;26.50;96.90
21261;DHT22;10788;47.930;9.766;2023-07-20T13:17:22;26.50;96.40
21261;DHT22;10788;47.930;9.766;2023-07-20T13:19:48;26.60;96.60
21261;DHT22;10788;47.930;9.766;2023-07-20T13:22:14;26.60;96.10
21261;DHT22;10788;47.930;9.766;2023-07-20T13:24:44;26.60;94.20
21261;DHT22;10788;47.930;9.766;2023-07-20T13:27:12;26.50;94.10
21261;DHT22;10788;47.930;9.766;2023-07-20T13:29:37;26.50;94.30
21261;DHT22;10788;47.930;9.766;2023-07-20T13:32:03;26.50;94.60
21261;DHT22;10788;47.930;9.766;2023-07-20T13:34:30;26.60;94.40
21261;DHT22;10788;47.930;9.766;2023-07-20T13:36:56;26.60;94.60
21261;DHT22;10788;47.930;9.766;2023-07-20T13:39:22;26.60;94.50
21261;DHT22;10788;47.930;9.766;2023-07-20T13:41:50;26.60;94.50
21261;DHT22;10788;47.930;9.766;2023-07-20T13:44:15;26.60;94.90
21261;DHT22;10788;47.930;9.766;2023-07-20T13:46:41;26.60;95.00
21261;DHT22;10788;47.930;9.766;2023-07-20T13:49:06;26.40;94.10
21261;DHT22;10788;47.930;9.766;2023-07-20T13:51:32;26.20;93.20
21261;DHT22;10788;47.930;9.766;2023-07-20T13:53:57;26.10;94.20
21261;DHT22;10788;47.930;9.766;2023-07-20T13:56:24;26.20;94.50
21261;DHT22;10788;47.930;9.766;2023-07-20T13:58:50;26.20;94.60
21261;DHT22;10788;47.930;9.766;2023-07-20T14:01:16;26.20;95.50
21261;DHT22;10788;47.930;9.766;2023-07-20T14:03:43;26.40;95.20
21261;DHT22;10788;47.930;9.766;2023-07-20T14:06:09;26.40;94.90
21261;DHT22;10788;47.930;9.766;2023-07-20T14:08:34;26.40;95.30
21261;DHT22;10788;47.930;9.766;2023-07-20T14:11:00;26.60;95.90
21261;DHT22;10788;47.930;9.766;2023-07-20T14:13:25;26.60;95.50
21261;DHT22;10788;47.930;9.766;2023-07-20T14:15:51;26.80;96.30
21261;DHT22;10788;47.930;9.766;2023-07-20T14:18:17;26.80;97.10
21261;DHT22;10788;47.930;9.766;2023-07-20T14:20:42;26.90;96.60
21261;DHT22;10788;47.930;9.766;2023-07-20T14:23:09;26.80;97.30
21261;DHT22;10788;47.930;9.766;2023-07-20T14:25:35;26.70;96.40
21261;DHT22;10788;47.930;9.766;2023-07-20T14:28:01;26.70;96.10
21261;DHT22;10788;47.930;9.766;2023-07-20T14:30:26;26.70;95.60
21261;DHT22;10788;47.930;9.766;2023-07-20T14:32:52;26.60;95.00
21261;DHT22;10788;47.930;9.766;2023-07-20T14:35:18;26.50;95.30
21261;DHT22;10788;47.930;9.766;2023-07-20T14:37:44;26.50;95.50
21261;DHT22;10788;47.930;9.766;2023-07-20T14:40:12;26.60;95.00
21261;DHT22;10788;47.930;9.766;2023-07-20T14:42:38;26.50;95.20
21261;DHT22;10788;47.930;9.766;2023-07-20T14:47:39;26.50;95.00
21261;DHT22;10788;47.930;9.766;2023-07-20T14:50:06;26.50;94.50
21261;DHT22;10788;47.930;9.766;2023-07-20T14:52:31;26.50;94.80
21261;DHT22;10788;47.930;9.766;2023-07-20T14:54:57;26.50;95.10
21261;DHT22;10788;47.930;9.766;2023-07-20T14:57:23;26.50;94.80
21261;DHT22;10788;47.930;9.766;2023-07-20T14:59:49;26.40;95.00
21261;DHT22;10788;47.930;9.766;2023-07-20T15:02:15;26.40;95.30
21261;DHT22;10788;47.930;9.766;2023-07-20T15:04:51;26.40;95.00
21261;DHT22;10788;47.930;9.766;2023-07-20T15:07:21;26.40;94.00
21261;DHT22;10788;47.930;9.766;2023-07-20T15:09:49;26.30;94.50
21261;DHT22;10788;47.930;9.766;2023-07-20T15:12:15;26.30;95.30
21261;DHT22;10788;47.930;9.766;2023-07-20T15:14:42;26.40;95.30
21261;DHT22;10788;47.930;9.766;2023-07-20T15:17:11;26.50;94.60
21261;DHT22;10788;47.930;9.766;2023-07-20T15:19:36;26.60;95.80
21261;DHT22;10788;47.930;9.766;2023-07-20T15:22:04;26.70;95.30
21261;DHT22;10788;47.930;9.766;2023-07-20T15:24:30;26.10;95.90
21261;DHT22;10788;47.930;9.766;2023-07-20T15:26:56;26.20;96.90
21261;DHT22;10788;47.930;9.766;2023-07-20T15:29:23;26.30;97.40
21261;DHT22;10788;47.930;9.766;2023-07-20T15:31:48;26.30;97.20
21261;DHT22;10788;47.930;9.766;2023-07-20T15:34:14;26.20;97.20
21261;DHT22;10788;47.930;9.766;2023-07-20T15:36:41;26.10;96.60
21261;DHT22;10788;47.930;9.766;2023-07-20T15:39:08;26.20;98.20
21261;DHT22;10788;47.930;9.766;2023-07-20T15:41:34;26.30;98.10
21261;DHT22;10788;47.930;9.766;2023-07-20T15:44:00;26.50;98.20
21261;DHT22;10788;47.930;9.766;2023-07-20T15:46:43;26.60;96.20
21261;DHT22;10788;47.930;9.766;2023-07-20T15:49:09;26.70;96.50
21261;DHT22;10788;47.930;9.766;2023-07-20T15:51:35;26.90;96.40
21261;DHT22;10788;47.930;9.766;2023-07-20T15:54:02;27.00;96.20
21261;DHT22;10788;47.930;9.766;2023-07-20T15:56:28;26.60;95.00
21261;DHT22;10788;47.930;9.766;2023-07-20T15:58:54;26.50;95.50